createdAt,value
2023-03-08T00:01:45.161Z,8.15
2023-03-08T00:04:11.704Z,8.63
2023-03-08T00:06:38.122Z,8.48
2023-03-08T00:09:04.693Z,8.80
2023-03-08T00:11:31.186Z,7.72
2023-03-08T00:13:57.601Z,10.45
2023-03-08T00:16:24.422Z,8.20
2023-03-08T00:18:50.829Z,8.98
2023-03-08T00:21:18.152Z,7.20
2023-03-08T00:23:45.009Z,7.90
2023-03-08T00:26:11.741Z,8.52
2023-03-08T00:28:38.658Z,8.18
2023-03-08T00:31:09.155Z,8.30
2023-03-08T00:33:35.971Z,8.07
2023-03-08T00:36:06.919Z,8.30
2023-03-08T00:38:35.054Z,7.65
2023-03-08T00:41:01.604Z,8.57
2023-03-08T00:43:28.402Z,7.72
2023-03-08T00:45:54.779Z,8.57
2023-03-08T00:48:21.191Z,9.15
2023-03-08T00:50:47.579Z,9.10
2023-03-08T00:53:14.129Z,9.23
2023-03-08T00:55:47.187Z,8.57
2023-03-08T00:58:13.553Z,9.48
2023-03-08T01:00:39.927Z,10.02
2023-03-08T01:03:06.242Z,8.88
2023-03-08T01:05:32.618Z,9.68
2023-03-08T01:07:58.940Z,11.27
2023-03-08T01:10:25.240Z,12.10
2023-03-08T01:12:51.588Z,9.48
2023-03-08T01:15:17.951Z,11.80
2023-03-08T01:17:44.292Z,12.48
2023-03-08T01:20:10.955Z,12.80
2023-03-08T01:22:37.282Z,10.93
2023-03-08T01:25:03.693Z,11.30
2023-03-08T01:27:30.113Z,10.88
2023-03-08T01:29:56.489Z,12.10
2023-03-08T01:32:22.863Z,12.90
2023-03-08T01:34:49.332Z,14.98
2023-03-08T01:37:15.731Z,17.08
2023-03-08T01:39:42.146Z,16.30
2023-03-08T01:42:08.656Z,14.27
2023-03-08T01:44:51.788Z,12.05
2023-03-08T01:47:20.012Z,13.23
2023-03-08T01:49:47.050Z,13.48
2023-03-08T01:52:19.610Z,15.82
2023-03-08T01:54:51.205Z,16.00
2023-03-08T01:57:17.519Z,17.98
2023-03-08T01:59:44.747Z,19.33
2023-03-08T02:02:11.252Z,22.55
2023-03-08T02:04:37.973Z,21.45
2023-03-08T02:07:04.319Z,21.75
2023-03-08T02:09:30.760Z,22.10
2023-03-08T02:11:59.447Z,22.20
2023-03-08T02:14:26.113Z,26.08
2023-03-08T02:16:53.597Z,23.48
2023-03-08T02:19:35.358Z,26.30
2023-03-08T02:22:11.253Z,25.88
2023-03-08T02:24:37.638Z,31.63
2023-03-08T02:27:09.570Z,34.30
2023-03-08T02:29:35.926Z,39.17
2023-03-08T02:32:02.330Z,36.58
2023-03-08T02:34:28.648Z,33.42
2023-03-08T02:36:55.024Z,34.40
2023-03-08T02:39:21.455Z,33.50
2023-03-08T02:41:47.806Z,33.65
2023-03-08T02:44:14.140Z,36.83
2023-03-08T02:46:40.490Z,36.50
2023-03-08T02:49:06.833Z,32.05
2023-03-08T02:51:33.250Z,35.15
2023-03-08T02:53:59.596Z,38.22
2023-03-08T02:56:25.920Z,41.60
2023-03-08T02:58:52.300Z,37.85
2023-03-08T03:01:18.700Z,49.97
2023-03-08T03:03:45.053Z,61.92
2023-03-08T03:06:15.663Z,75.28
2023-03-08T03:08:42.183Z,98.85
2023-03-08T03:11:12.831Z,78.15
2023-03-08T03:13:39.184Z,70.03
2023-03-08T03:16:08.138Z,69.47
2023-03-08T03:18:34.476Z,79.78
2023-03-08T03:21:08.357Z,79.93
2023-03-08T03:23:34.772Z,69.05
2023-03-08T03:26:05.256Z,80.85
2023-03-08T03:28:31.607Z,86.05
2023-03-08T03:30:58.006Z,90.22
2023-03-08T03:33:24.491Z,98.10
2023-03-08T03:35:50.900Z,89.65
2023-03-08T03:38:17.235Z,88.43
2023-03-08T03:40:43.602Z,74.68
2023-03-08T03:43:09.963Z,83.53
2023-03-08T03:45:36.304Z,81.80
2023-03-08T03:48:02.680Z,70.72
2023-03-08T03:50:29.060Z,88.65
2023-03-08T03:52:55.436Z,88.55
2023-03-08T03:55:21.748Z,77.53
2023-03-08T03:57:48.201Z,75.80
2023-03-08T04:00:14.813Z,77.25
2023-03-08T04:02:41.264Z,94.60
2023-03-08T04:05:07.777Z,95.55
2023-03-08T04:07:34.146Z,85.57
2023-03-08T04:10:00.478Z,111.97
2023-03-08T04:12:26.907Z,84.65
2023-03-08T04:14:53.586Z,77.97
2023-03-08T04:17:19.942Z,70.97
2023-03-08T04:19:48.112Z,64.97
2023-03-08T04:22:14.428Z,73.72
2023-03-08T04:24:40.744Z,62.17
2023-03-08T04:27:07.102Z,95.95
2023-03-08T04:29:33.423Z,88.10
2023-03-08T04:32:00.351Z,81.15
2023-03-08T04:34:27.633Z,86.15
2023-03-08T04:36:53.988Z,80.45
2023-03-08T04:39:20.321Z,84.00
2023-03-08T04:41:46.660Z,80.57
2023-03-08T04:44:13.009Z,79.18
2023-03-08T04:46:39.394Z,93.93
2023-03-08T04:49:05.997Z,78.70
2023-03-08T04:51:32.378Z,74.38
2023-03-08T04:53:58.726Z,72.07
2023-03-08T04:56:25.081Z,85.88
2023-03-08T04:58:51.400Z,87.22
2023-03-08T05:01:19.384Z,86.28
2023-03-08T05:06:14.043Z,91.60
2023-03-08T05:08:40.597Z,87.13
2023-03-08T05:11:07.006Z,101.13
2023-03-08T05:13:34.584Z,101.60
2023-03-08T05:16:01.183Z,94.60
2023-03-08T05:18:27.570Z,98.35
2023-03-08T05:20:58.316Z,100.25
2023-03-08T05:23:25.726Z,93.25
2023-03-08T05:25:56.632Z,116.00
2023-03-08T05:28:23.399Z,101.35
2023-03-08T05:30:50.088Z,100.57
2023-03-08T05:33:18.320Z,88.95
2023-03-08T05:35:52.363Z,88.20
2023-03-08T05:38:18.763Z,81.63
2023-03-08T05:40:45.093Z,96.97
2023-03-08T05:43:11.493Z,78.80
2023-03-08T05:45:38.026Z,82.45
2023-03-08T05:48:04.471Z,81.47
2023-03-08T05:50:30.792Z,77.55
2023-03-08T05:52:57.146Z,92.25
2023-03-08T05:55:23.803Z,90.30
2023-03-08T05:57:50.129Z,101.38
2023-03-08T06:00:17.114Z,92.15
2023-03-08T06:02:43.577Z,94.65
2023-03-08T06:05:10.128Z,90.90
2023-03-08T06:07:36.517Z,115.65
2023-03-08T06:10:03.141Z,110.60
2023-03-08T06:12:29.525Z,125.82
2023-03-08T06:14:55.903Z,98.50
2023-03-08T06:17:22.244Z,119.18
2023-03-08T06:19:48.573Z,113.70
2023-03-08T06:22:15.755Z,105.60
2023-03-08T06:24:42.149Z,95.93
2023-03-08T06:27:08.525Z,99.90
2023-03-08T06:29:34.943Z,99.38
2023-03-08T06:32:02.187Z,111.93
2023-03-08T06:34:28.578Z,112.55
2023-03-08T06:36:57.858Z,106.03
2023-03-08T06:39:24.233Z,97.93
2023-03-08T06:41:50.544Z,119.13
2023-03-08T06:44:16.898Z,119.93
2023-03-08T06:46:43.753Z,118.72
2023-03-08T06:49:10.231Z,105.97
2023-03-08T06:51:36.575Z,95.85
2023-03-08T06:54:02.936Z,107.72
2023-03-08T06:56:29.382Z,110.78
2023-03-08T06:58:55.935Z,93.47
2023-03-08T07:01:22.309Z,109.00
2023-03-08T07:03:48.972Z,94.93
2023-03-08T07:06:15.362Z,93.32
2023-03-08T07:08:41.884Z,92.80
2023-03-08T07:11:11.167Z,95.47
2023-03-08T07:13:38.099Z,81.75
2023-03-08T07:16:08.536Z,97.07
2023-03-08T07:18:34.969Z,88.70
2023-03-08T07:21:01.388Z,90.07
2023-03-08T07:23:27.716Z,87.85
2023-03-08T07:25:54.085Z,83.18
2023-03-08T07:28:20.464Z,90.97
2023-03-08T07:30:48.685Z,91.32
2023-03-08T07:33:15.109Z,84.22
2023-03-08T07:35:41.580Z,89.95
2023-03-08T07:38:08.237Z,67.82
2023-03-08T07:40:34.626Z,72.25
2023-03-08T07:43:01.045Z,80.40
2023-03-08T07:45:27.448Z,79.97
2023-03-08T07:47:53.772Z,69.18
2023-03-08T07:50:20.857Z,69.60
2023-03-08T07:52:47.729Z,68.40
2023-03-08T07:55:14.245Z,61.83
2023-03-08T07:57:40.752Z,65.07
2023-03-08T08:00:07.611Z,61.53
2023-03-08T08:02:34.441Z,66.47
2023-03-08T08:05:01.041Z,56.28
2023-03-08T08:07:27.516Z,68.30
2023-03-08T08:09:54.099Z,71.13
2023-03-08T08:12:20.457Z,52.60
2023-03-08T08:14:46.812Z,51.50
2023-03-08T08:17:13.141Z,63.67
2023-03-08T08:19:39.707Z,55.58
2023-03-08T08:22:06.492Z,47.03
2023-03-08T08:24:32.897Z,50.08
2023-03-08T08:26:59.237Z,46.47
2023-03-08T08:29:25.921Z,45.65
2023-03-08T08:31:53.028Z,47.05
2023-03-08T08:34:22.547Z,41.97
2023-03-08T08:36:48.870Z,36.00
2023-03-08T08:39:15.217Z,41.63
2023-03-08T08:41:41.739Z,40.00
2023-03-08T08:44:08.099Z,34.22
2023-03-08T08:46:35.109Z,35.17
2023-03-08T08:49:01.878Z,32.30
2023-03-08T08:51:28.345Z,36.03
2023-03-08T08:53:55.148Z,36.53
2023-03-08T08:56:27.992Z,34.45
2023-03-08T08:58:59.402Z,35.83
2023-03-08T09:01:27.287Z,29.42
2023-03-08T09:03:53.941Z,33.53
2023-03-08T09:06:21.806Z,29.40
2023-03-08T09:08:52.260Z,26.65
2023-03-08T09:11:18.691Z,28.88
2023-03-08T09:13:45.101Z,23.15
2023-03-08T09:16:17.682Z,25.25
2023-03-08T09:18:44.216Z,24.08
2023-03-08T09:21:10.817Z,24.55
2023-03-08T09:23:37.194Z,20.23
2023-03-08T09:26:04.966Z,22.42
2023-03-08T09:28:31.372Z,23.55
2023-03-08T09:30:57.812Z,17.38
2023-03-08T09:33:24.170Z,16.52
2023-03-08T09:35:57.531Z,16.58
2023-03-08T09:38:24.435Z,16.45
2023-03-08T09:41:01.506Z,15.45
2023-03-08T09:43:54.123Z,20.70
2023-03-08T09:46:23.411Z,16.95
2023-03-08T09:48:50.731Z,14.15
2023-03-08T09:51:18.253Z,15.65
2023-03-08T09:53:49.229Z,15.60
2023-03-08T09:56:21.327Z,15.48
2023-03-08T09:58:49.959Z,14.18
2023-03-08T10:01:34.602Z,14.77
2023-03-08T10:04:10.188Z,13.60
2023-03-08T10:06:44.049Z,14.90
2023-03-08T10:09:10.363Z,14.52
2023-03-08T10:11:40.638Z,12.70
2023-03-08T10:14:13.734Z,13.40
2023-03-08T10:16:44.287Z,14.60
2023-03-08T10:19:21.930Z,13.48
2023-03-08T10:21:48.676Z,13.60
2023-03-08T10:24:18.670Z,11.57
2023-03-08T10:26:45.362Z,10.95
2023-03-08T10:29:12.841Z,12.88
2023-03-08T10:31:39.584Z,12.23
2023-03-08T10:34:08.711Z,12.18
2023-03-08T10:36:35.214Z,10.57
2023-03-08T10:39:09.162Z,9.65
2023-03-08T10:42:01.667Z,10.18
2023-03-08T10:44:45.405Z,10.30
2023-03-08T10:47:19.865Z,9.88
2023-03-08T10:49:47.517Z,10.20
2023-03-08T10:52:23.390Z,11.20
2023-03-08T10:55:00.254Z,11.20
2023-03-08T10:57:27.457Z,11.77
2023-03-08T10:59:54.027Z,10.57
2023-03-08T11:02:22.680Z,10.18
2023-03-08T11:04:53.174Z,12.40
2023-03-08T11:07:24.239Z,11.10
2023-03-08T11:09:50.576Z,9.95
2023-03-08T11:12:26.293Z,9.40
2023-03-08T11:14:52.819Z,8.27
2023-03-08T11:17:23.678Z,9.15
2023-03-08T11:19:59.946Z,7.90
2023-03-08T11:22:29.569Z,8.00
2023-03-08T11:24:58.704Z,6.60
2023-03-08T11:27:28.072Z,7.18
2023-03-08T11:29:57.539Z,7.32
2023-03-08T11:32:30.584Z,7.03
2023-03-08T11:35:06.092Z,6.82
2023-03-08T11:37:50.380Z,8.45
2023-03-08T11:40:25.280Z,7.85
2023-03-08T11:43:10.572Z,8.13
2023-03-08T11:45:46.195Z,7.90
2023-03-08T11:48:15.302Z,7.20
2023-03-08T11:51:14.384Z,7.50
2023-03-08T11:53:59.580Z,7.03
2023-03-08T11:56:34.790Z,7.15
2023-03-08T11:59:13.424Z,7.07
2023-03-08T12:01:44.820Z,6.75
2023-03-08T12:04:13.747Z,7.78
2023-03-08T12:06:42.019Z,7.53
2023-03-08T12:09:11.303Z,7.95
2023-03-08T12:11:42.717Z,8.13
2023-03-08T12:14:20.985Z,7.72
2023-03-08T12:16:54.560Z,8.43
2023-03-08T12:19:25.053Z,9.23
2023-03-08T12:22:24.100Z,8.82
2023-03-08T12:25:15.581Z,8.77
2023-03-08T12:27:45.238Z,8.43
2023-03-08T12:30:34.476Z,8.93
2023-03-08T12:33:02.786Z,8.35
2023-03-08T12:35:34.223Z,8.63
2023-03-08T12:38:01.958Z,8.70
2023-03-08T12:40:31.598Z,9.07
2023-03-08T12:43:09.528Z,8.98
2023-03-08T12:48:05.332Z,8.73
2023-03-08T12:50:36.057Z,8.85
2023-03-08T12:53:02.529Z,9.60
2023-03-08T12:55:31.840Z,9.77
2023-03-08T12:58:00.722Z,10.18
2023-03-08T13:00:33.591Z,9.68
2023-03-08T13:03:01.741Z,9.20
2023-03-08T13:05:30.877Z,9.77
2023-03-08T13:08:12.458Z,9.38
2023-03-08T13:10:55.841Z,9.88
2023-03-08T13:13:38.231Z,10.23
2023-03-08T13:16:14.681Z,8.70
2023-03-08T13:18:42.490Z,9.73
2023-03-08T13:21:14.670Z,10.02
2023-03-08T13:23:44.766Z,10.27
2023-03-08T13:26:40.547Z,10.55
2023-03-08T13:29:18.412Z,9.93
2023-03-08T13:31:45.233Z,9.68
2023-03-08T13:34:23.487Z,10.70
2023-03-08T13:36:49.957Z,19.45
2023-03-08T13:39:19.755Z,11.52
2023-03-08T13:41:46.903Z,12.00
2023-03-08T13:44:17.477Z,10.87
2023-03-08T13:46:44.687Z,14.05
2023-03-08T13:49:20.193Z,12.05
2023-03-08T13:51:49.617Z,12.50
2023-03-08T13:54:20.118Z,12.70
2023-03-08T13:56:52.082Z,12.25
2023-03-08T13:59:21.652Z,14.77
2023-03-08T14:01:50.192Z,12.20
2023-03-08T14:04:18.747Z,12.93
2023-03-08T14:07:14.565Z,13.15
2023-03-08T14:09:40.952Z,13.73
2023-03-08T14:12:07.561Z,12.30
2023-03-08T14:14:38.907Z,11.85
2023-03-08T14:17:05.654Z,12.70
2023-03-08T14:19:42.045Z,11.82
2023-03-08T14:22:08.549Z,10.45
2023-03-08T14:24:35.980Z,9.85
2023-03-08T14:27:25.647Z,9.52
2023-03-08T14:30:00.791Z,9.90
2023-03-08T14:32:35.765Z,9.65
2023-03-08T14:35:07.158Z,9.30
2023-03-08T14:37:34.884Z,8.68
2023-03-08T14:40:13.384Z,9.77
2023-03-08T14:42:50.649Z,9.73
2023-03-08T14:45:17.100Z,9.88
2023-03-08T14:47:49.151Z,9.07
2023-03-08T14:50:23.901Z,9.80
2023-03-08T14:52:51.858Z,12.18
2023-03-08T14:55:36.227Z,10.90
2023-03-08T14:58:04.249Z,11.25
2023-03-08T15:02:57.466Z,11.10
2023-03-08T15:05:29.238Z,11.50
2023-03-08T15:07:56.789Z,15.38
2023-03-08T15:10:28.111Z,10.82
2023-03-08T15:12:54.866Z,13.40
2023-03-08T15:15:21.459Z,14.10
2023-03-08T15:17:48.214Z,17.08
2023-03-08T15:20:14.762Z,17.75
2023-03-08T15:22:48.823Z,75.00
2023-03-08T15:25:23.751Z,19.58
2023-03-08T15:27:50.171Z,21.45
2023-03-08T15:30:21.109Z,16.20
2023-03-08T15:32:47.731Z,14.60
2023-03-08T15:35:14.299Z,13.30
2023-03-08T15:37:40.822Z,14.43
2023-03-08T15:40:11.597Z,13.75
2023-03-08T15:42:37.968Z,16.13
2023-03-08T15:45:04.529Z,13.07
2023-03-08T15:47:30.853Z,12.27
2023-03-08T15:49:57.264Z,12.45
2023-03-08T15:52:30.099Z,13.27
2023-03-08T15:54:57.131Z,10.85
2023-03-08T15:57:23.716Z,11.32
2023-03-08T15:59:51.663Z,15.07
2023-03-08T16:02:19.069Z,18.30
2023-03-08T16:04:47.794Z,12.75
2023-03-08T16:07:19.084Z,12.90
2023-03-08T16:09:46.338Z,16.35
2023-03-08T16:12:14.142Z,10.30
2023-03-08T16:14:40.975Z,10.90
2023-03-08T16:17:09.004Z,12.85
2023-03-08T16:22:02.155Z,9.95
2023-03-08T16:24:28.831Z,11.07
2023-03-08T16:26:55.316Z,10.25
2023-03-08T16:29:22.342Z,13.27
2023-03-08T16:31:49.223Z,11.03
2023-03-08T16:34:15.795Z,11.18
2023-03-08T16:36:42.198Z,14.13
2023-03-08T16:39:08.912Z,12.98
2023-03-08T16:41:36.284Z,11.90
2023-03-08T16:44:03.072Z,10.88
2023-03-08T16:46:29.553Z,12.35
2023-03-08T16:48:56.340Z,12.02
2023-03-08T16:51:24.572Z,14.50
2023-03-08T16:53:50.985Z,15.07
2023-03-08T16:56:24.936Z,12.40
2023-03-08T16:58:51.680Z,13.10
2023-03-08T17:01:19.312Z,15.82
2023-03-08T17:03:45.692Z,17.10
2023-03-08T17:06:13.327Z,13.35
2023-03-08T17:08:39.779Z,14.25
2023-03-08T17:11:06.363Z,13.75
2023-03-08T17:13:33.252Z,15.05
2023-03-08T17:15:59.588Z,15.38
2023-03-08T17:18:26.180Z,13.32
2023-03-08T17:20:52.850Z,15.35
2023-03-08T17:23:19.828Z,12.70
2023-03-08T17:25:46.572Z,13.88
2023-03-08T17:28:12.955Z,14.85
2023-03-08T17:30:39.409Z,17.83
2023-03-08T17:33:05.745Z,13.50
2023-03-08T17:35:32.362Z,13.65
2023-03-08T17:37:58.851Z,17.77
2023-03-08T17:40:25.485Z,16.83
2023-03-08T17:42:51.874Z,17.48
2023-03-08T17:45:18.660Z,14.60
2023-03-08T17:47:45.205Z,16.65
2023-03-08T17:50:15.033Z,15.13
2023-03-08T17:52:41.437Z,18.58
2023-03-08T17:55:07.975Z,17.70
2023-03-08T17:57:37.770Z,22.27
2023-03-08T18:00:05.676Z,18.45
2023-03-08T18:02:32.846Z,18.48
2023-03-08T18:04:59.262Z,14.05
2023-03-08T18:07:27.724Z,20.77
2023-03-08T18:09:54.191Z,20.02
2023-03-08T18:12:20.536Z,20.20
2023-03-08T18:14:50.473Z,22.40
2023-03-08T18:17:16.827Z,21.67
2023-03-08T18:19:43.461Z,20.05
2023-03-08T18:22:09.836Z,22.20
2023-03-08T18:24:36.209Z,46.70
2023-03-08T18:27:05.389Z,25.48
2023-03-08T18:29:35.529Z,31.23
2023-03-08T18:32:02.193Z,36.58
2023-03-08T18:34:28.738Z,31.73
2023-03-08T18:36:55.711Z,27.98
2023-03-08T18:39:22.101Z,28.27
2023-03-08T18:41:48.424Z,26.63
2023-03-08T18:44:14.766Z,25.27
2023-03-08T18:46:41.199Z,22.40
2023-03-08T18:49:08.716Z,27.50
2023-03-08T18:51:36.281Z,28.52
2023-03-08T18:54:03.458Z,30.90
2023-03-08T18:56:30.153Z,31.27
2023-03-08T18:58:57.813Z,29.98
2023-03-08T19:01:24.460Z,28.20
2023-03-08T19:03:51.291Z,27.70
2023-03-08T19:06:17.719Z,33.65
2023-03-08T19:08:44.137Z,31.67
2023-03-08T19:11:18.283Z,33.30
2023-03-08T19:13:44.857Z,28.20
2023-03-08T19:16:24.907Z,29.55
2023-03-08T19:18:53.369Z,26.83
2023-03-08T19:21:21.013Z,32.63
2023-03-08T19:23:47.728Z,28.48
2023-03-08T19:26:34.890Z,27.45
2023-03-08T19:29:01.871Z,25.00
2023-03-08T19:31:29.021Z,24.60
2023-03-08T19:33:55.707Z,29.63
2023-03-08T19:36:22.552Z,27.13
2023-03-08T19:38:48.930Z,34.90
2023-03-08T19:41:16.141Z,32.20
2023-03-08T19:43:42.729Z,31.53
2023-03-08T19:46:09.567Z,33.17
2023-03-08T19:48:36.180Z,60.92
2023-03-08T19:51:02.763Z,26.13
2023-03-08T19:53:29.173Z,25.48
2023-03-08T19:55:55.797Z,28.42
2023-03-08T19:58:22.273Z,32.00
2023-03-08T20:00:48.805Z,34.03
2023-03-08T20:03:16.802Z,32.15
2023-03-08T20:08:10.100Z,62.38
2023-03-08T20:10:36.823Z,38.83
2023-03-08T20:13:03.489Z,31.88
2023-03-08T20:15:30.255Z,35.45
2023-03-08T20:17:56.704Z,22.10
2023-03-08T20:20:23.096Z,23.67
2023-03-08T20:22:49.564Z,24.00
2023-03-08T20:25:16.056Z,25.02
2023-03-08T20:27:43.515Z,24.30
2023-03-08T20:30:10.853Z,24.13
2023-03-08T20:32:37.312Z,22.65
2023-03-08T20:35:04.849Z,23.23
2023-03-08T20:37:31.444Z,23.25
2023-03-08T20:39:59.067Z,27.05
2023-03-08T20:42:25.688Z,25.35
2023-03-08T20:44:52.002Z,29.42
2023-03-08T20:47:18.386Z,25.38
2023-03-08T20:49:44.701Z,31.20
2023-03-08T20:52:11.079Z,29.70
2023-03-08T20:54:37.456Z,29.92
2023-03-08T20:57:04.298Z,26.20
2023-03-08T20:59:30.709Z,71.32
2023-03-08T21:01:57.273Z,83.68
2023-03-08T21:04:23.964Z,55.60
2023-03-08T21:06:50.319Z,73.13
2023-03-08T21:09:16.704Z,60.45
2023-03-08T21:11:43.095Z,82.93
2023-03-08T21:14:10.055Z,37.35
2023-03-08T21:16:36.408Z,24.85
2023-03-08T21:19:03.347Z,28.02
2023-03-08T21:21:34.167Z,34.55
2023-03-08T21:24:01.739Z,37.53
2023-03-08T21:26:28.668Z,40.67
2023-03-08T21:28:55.745Z,45.45
2023-03-08T21:31:22.326Z,42.47
2023-03-08T21:33:49.423Z,44.63
2023-03-08T21:36:16.133Z,37.80
2023-03-08T21:38:42.564Z,37.97
2023-03-08T21:41:22.247Z,34.13
2023-03-08T21:43:48.662Z,33.15
2023-03-08T21:46:15.265Z,28.50
2023-03-08T21:48:41.735Z,31.20
2023-03-08T21:51:08.093Z,30.38
2023-03-08T21:53:34.600Z,26.85
2023-03-08T21:56:01.170Z,25.38
2023-03-08T21:58:27.637Z,27.70
2023-03-08T22:00:54.322Z,27.40
2023-03-08T22:03:20.718Z,23.10
2023-03-08T22:05:47.080Z,25.83
2023-03-08T22:08:13.394Z,29.27
2023-03-08T22:10:39.797Z,26.42
2023-03-08T22:13:06.160Z,28.38
2023-03-08T22:15:32.507Z,29.88
2023-03-08T22:17:58.880Z,21.95
2023-03-08T22:20:25.265Z,23.30
2023-03-08T22:22:51.565Z,23.17
2023-03-08T22:25:17.920Z,23.42
2023-03-08T22:27:44.313Z,20.98
2023-03-08T22:30:11.065Z,24.60
2023-03-08T22:32:38.304Z,26.25
2023-03-08T22:35:05.005Z,24.20
2023-03-08T22:37:31.335Z,23.02
2023-03-08T22:39:58.188Z,20.73
2023-03-08T22:42:24.624Z,25.00
2023-03-08T22:44:51.286Z,25.50
2023-03-08T22:47:17.746Z,34.47
2023-03-08T22:49:44.111Z,28.77
2023-03-08T22:52:10.599Z,29.58
2023-03-08T22:54:36.931Z,23.90
2023-03-08T22:57:03.394Z,25.05
2023-03-08T22:59:29.728Z,22.90
2023-03-08T23:01:56.437Z,23.00
2023-03-08T23:04:22.855Z,19.13
2023-03-08T23:06:49.228Z,22.58
2023-03-08T23:09:17.047Z,21.88
2023-03-08T23:11:43.470Z,19.48
2023-03-08T23:14:10.176Z,20.48
2023-03-08T23:16:41.983Z,22.15
2023-03-08T23:19:11.103Z,21.20
2023-03-08T23:21:38.213Z,22.77
2023-03-08T23:24:04.731Z,18.20
2023-03-08T23:26:32.634Z,22.13
2023-03-08T23:28:59.668Z,24.73
2023-03-08T23:31:27.574Z,21.38
2023-03-08T23:36:21.770Z,18.00
2023-03-08T23:38:48.752Z,20.33
2023-03-08T23:41:15.554Z,24.58
2023-03-08T23:43:42.384Z,23.42
2023-03-08T23:46:19.000Z,22.60
2023-03-08T23:48:45.974Z,24.70
2023-03-08T23:51:13.946Z,37.25
2023-03-08T23:56:07.269Z,42.20
2023-03-08T23:58:33.663Z,49.83
